sensor_id;sensor_type;location;lat;lon;timestamp;P1;durP1;ratioP1;P2;durP2;ratioP2
50291;SDS011;36190;54.980;73.388;2023-04-15T00:00:45;6.32;;;2.13;;
50291;SDS011;36190;54.980;73.388;2023-04-15T00:03:12;2.47;;;1.70;;
50291;SDS011;36190;54.980;73.388;2023-04-15T00:05:42;4.22;;;1.90;;
50291;SDS011;36190;54.980;73.388;2023-04-15T00:08:09;4.82;;;2.00;;
50291;SDS011;36190;54.980;73.388;2023-04-15T00:10:37;4.45;;;2.38;;
50291;SDS011;36190;54.980;73.388;2023-04-15T00:13:04;6.13;;;2.20;;
50291;SDS011;36190;54.980;73.388;2023-04-15T00:15:32;5.82;;;1.80;;
50291;SDS011;36190;54.980;73.388;2023-04-15T00:17:59;4.63;;;1.88;;
50291;SDS011;36190;54.980;73.388;2023-04-15T00:20:26;4.57;;;2.00;;
50291;SDS011;36190;54.980;73.388;2023-04-15T00:22:55;4.03;;;1.77;;
50291;SDS011;36190;54.980;73.388;2023-04-15T00:25:23;4.53;;;2.25;;
50291;SDS011;36190;54.980;73.388;2023-04-15T00:27:51;3.15;;;1.85;;
50291;SDS011;36190;54.980;73.388;2023-04-15T00:30:18;4.43;;;2.20;;
50291;SDS011;36190;54.980;73.388;2023-04-15T00:32:46;4.95;;;1.90;;
50291;SDS011;36190;54.980;73.388;2023-04-15T00:35:13;9.20;;;2.85;;
50291;SDS011;36190;54.980;73.388;2023-04-15T00:37:41;6.18;;;2.10;;
50291;SDS011;36190;54.980;73.388;2023-04-15T00:40:11;5.15;;;2.10;;
50291;SDS011;36190;54.980;73.388;2023-04-15T00:42:40;7.60;;;2.30;;
50291;SDS011;36190;54.980;73.388;2023-04-15T00:45:08;6.82;;;2.30;;
50291;SDS011;36190;54.980;73.388;2023-04-15T00:47:36;9.15;;;2.15;;
50291;SDS011;36190;54.980;73.388;2023-04-15T00:50:05;5.45;;;1.92;;
50291;SDS011;36190;54.980;73.388;2023-04-15T00:52:33;13.23;;;2.60;;
50291;SDS011;36190;54.980;73.388;2023-04-15T00:55:01;12.45;;;2.38;;
50291;SDS011;36190;54.980;73.388;2023-04-15T00:57:31;5.57;;;1.92;;
50291;SDS011;36190;54.980;73.388;2023-04-15T00:59:59;10.68;;;2.22;;
50291;SDS011;36190;54.980;73.388;2023-04-15T01:02:27;6.40;;;2.13;;
50291;SDS011;36190;54.980;73.388;2023-04-15T01:04:55;7.05;;;2.33;;
50291;SDS011;36190;54.980;73.388;2023-04-15T01:07:22;6.55;;;2.53;;
50291;SDS011;36190;54.980;73.388;2023-04-15T01:09:50;9.52;;;2.60;;
50291;SDS011;36190;54.980;73.388;2023-04-15T01:12:18;5.18;;;2.10;;
50291;SDS011;36190;54.980;73.388;2023-04-15T01:14:47;5.43;;;2.45;;
50291;SDS011;36190;54.980;73.388;2023-04-15T01:17:15;6.28;;;2.50;;
50291;SDS011;36190;54.980;73.388;2023-04-15T01:19:43;3.53;;;1.80;;
50291;SDS011;36190;54.980;73.388;2023-04-15T01:22:11;7.22;;;2.35;;
50291;SDS011;36190;54.980;73.388;2023-04-15T01:24:38;4.82;;;1.83;;
50291;SDS011;36190;54.980;73.388;2023-04-15T01:27:08;5.18;;;2.00;;
50291;SDS011;36190;54.980;73.388;2023-04-15T01:29:36;12.35;;;2.90;;
50291;SDS011;36190;54.980;73.388;2023-04-15T01:32:04;9.00;;;2.45;;
50291;SDS011;36190;54.980;73.388;2023-04-15T01:34:32;6.05;;;2.22;;
50291;SDS011;36190;54.980;73.388;2023-04-15T01:36:59;8.75;;;2.55;;
50291;SDS011;36190;54.980;73.388;2023-04-15T01:39:27;7.75;;;2.40;;
50291;SDS011;36190;54.980;73.388;2023-04-15T01:41:54;6.85;;;2.10;;
50291;SDS011;36190;54.980;73.388;2023-04-15T01:44:24;4.55;;;1.80;;
50291;SDS011;36190;54.980;73.388;2023-04-15T01:46:51;8.13;;;2.33;;
50291;SDS011;36190;54.980;73.388;2023-04-15T01:49:19;9.98;;;2.15;;
50291;SDS011;36190;54.980;73.388;2023-04-15T01:51:47;10.55;;;2.40;;
50291;SDS011;36190;54.980;73.388;2023-04-15T01:54:14;8.25;;;2.20;;
50291;SDS011;36190;54.980;73.388;2023-04-15T01:56:42;6.78;;;2.20;;
50291;SDS011;36190;54.980;73.388;2023-04-15T01:59:09;11.27;;;2.63;;
50291;SDS011;36190;54.980;73.388;2023-04-15T02:01:38;9.95;;;3.00;;
50291;SDS011;36190;54.980;73.388;2023-04-15T02:04:06;4.55;;;2.03;;
50291;SDS011;36190;54.980;73.388;2023-04-15T02:09:07;6.57;;;2.28;;
50291;SDS011;36190;54.980;73.388;2023-04-15T02:11:35;7.18;;;2.05;;
50291;SDS011;36190;54.980;73.388;2023-04-15T02:14:03;7.15;;;2.20;;
50291;SDS011;36190;54.980;73.388;2023-04-15T02:16:31;4.57;;;1.75;;
50291;SDS011;36190;54.980;73.388;2023-04-15T02:19:00;11.45;;;3.20;;
50291;SDS011;36190;54.980;73.388;2023-04-15T02:21:28;5.65;;;2.15;;
50291;SDS011;36190;54.980;73.388;2023-04-15T02:23:56;13.35;;;2.65;;
50291;SDS011;36190;54.980;73.388;2023-04-15T02:26:23;10.02;;;2.80;;
50291;SDS011;36190;54.980;73.388;2023-04-15T02:28:51;8.65;;;2.40;;
50291;SDS011;36190;54.980;73.388;2023-04-15T02:31:18;3.42;;;1.80;;
50291;SDS011;36190;54.980;73.388;2023-04-15T02:33:46;10.88;;;2.10;;
50291;SDS011;36190;54.980;73.388;2023-04-15T02:36:15;6.50;;;2.30;;
50291;SDS011;36190;54.980;73.388;2023-04-15T02:38:42;6.82;;;2.30;;
50291;SDS011;36190;54.980;73.388;2023-04-15T02:41:10;6.20;;;2.30;;
50291;SDS011;36190;54.980;73.388;2023-04-15T02:43:37;8.70;;;2.80;;
50291;SDS011;36190;54.980;73.388;2023-04-15T02:46:05;11.57;;;2.50;;
50291;SDS011;36190;54.980;73.388;2023-04-15T02:48:33;8.55;;;2.60;;
50291;SDS011;36190;54.980;73.388;2023-04-15T02:51:10;4.22;;;2.08;;
50291;SDS011;36190;54.980;73.388;2023-04-15T02:53:40;7.15;;;2.10;;
50291;SDS011;36190;54.980;73.388;2023-04-15T02:56:07;9.65;;;2.40;;
50291;SDS011;36190;54.980;73.388;2023-04-15T02:58:36;7.43;;;2.22;;
50291;SDS011;36190;54.980;73.388;2023-04-15T03:01:03;7.63;;;2.30;;
50291;SDS011;36190;54.980;73.388;2023-04-15T03:03:31;7.97;;;2.40;;
50291;SDS011;36190;54.980;73.388;2023-04-15T03:05:59;9.70;;;2.70;;
50291;SDS011;36190;54.980;73.388;2023-04-15T03:08:26;10.43;;;2.80;;
50291;SDS011;36190;54.980;73.388;2023-04-15T03:10:55;10.57;;;2.70;;
50291;SDS011;36190;54.980;73.388;2023-04-15T03:13:25;6.78;;;2.38;;
50291;SDS011;36190;54.980;73.388;2023-04-15T03:15:52;7.10;;;2.22;;
50291;SDS011;36190;54.980;73.388;2023-04-15T03:18:20;4.72;;;1.83;;
50291;SDS011;36190;54.980;73.388;2023-04-15T03:20:47;5.40;;;1.88;;
50291;SDS011;36190;54.980;73.388;2023-04-15T03:23:15;40.03;;;4.70;;
50291;SDS011;36190;54.980;73.388;2023-04-15T03:25:43;13.05;;;2.63;;
50291;SDS011;36190;54.980;73.388;2023-04-15T03:28:12;10.15;;;2.53;;
50291;SDS011;36190;54.980;73.388;2023-04-15T03:30:40;8.10;;;2.85;;
50291;SDS011;36190;54.980;73.388;2023-04-15T03:33:08;10.45;;;3.00;;
50291;SDS011;36190;54.980;73.388;2023-04-15T03:35:35;9.57;;;2.83;;
50291;SDS011;36190;54.980;73.388;2023-04-15T03:38:02;4.07;;;1.80;;
50291;SDS011;36190;54.980;73.388;2023-04-15T03:40:30;4.95;;;2.20;;
50291;SDS011;36190;54.980;73.388;2023-04-15T03:42:57;12.40;;;2.60;;
50291;SDS011;36190;54.980;73.388;2023-04-15T03:45:26;5.78;;;1.67;;
50291;SDS011;36190;54.980;73.388;2023-04-15T03:47:54;11.57;;;2.30;;
50291;SDS011;36190;54.980;73.388;2023-04-15T03:50:21;9.68;;;2.78;;
50291;SDS011;36190;54.980;73.388;2023-04-15T03:52:49;7.82;;;2.47;;
50291;SDS011;36190;54.980;73.388;2023-04-15T03:55:16;4.93;;;2.10;;
50291;SDS011;36190;54.980;73.388;2023-04-15T03:57:44;8.82;;;2.17;;
50291;SDS011;36190;54.980;73.388;2023-04-15T04:00:11;11.50;;;2.40;;
50291;SDS011;36190;54.980;73.388;2023-04-15T04:02:41;9.93;;;2.40;;
50291;SDS011;36190;54.980;73.388;2023-04-15T04:05:10;4.43;;;2.00;;
50291;SDS011;36190;54.980;73.388;2023-04-15T04:07:37;6.15;;;2.08;;
50291;SDS011;36190;54.980;73.388;2023-04-15T04:10:05;5.70;;;2.08;;
50291;SDS011;36190;54.980;73.388;2023-04-15T04:12:33;19.98;;;3.47;;
50291;SDS011;36190;54.980;73.388;2023-04-15T04:15:00;4.57;;;1.90;;
50291;SDS011;36190;54.980;73.388;2023-04-15T04:17:28;6.00;;;2.25;;
50291;SDS011;36190;54.980;73.388;2023-04-15T04:19:57;8.50;;;2.10;;
50291;SDS011;36190;54.980;73.388;2023-04-15T04:22:24;8.43;;;2.50;;
50291;SDS011;36190;54.980;73.388;2023-04-15T04:24:52;4.18;;;1.80;;
50291;SDS011;36190;54.980;73.388;2023-04-15T04:27:19;9.73;;;3.03;;
50291;SDS011;36190;54.980;73.388;2023-04-15T04:29:46;6.78;;;2.28;;
50291;SDS011;36190;54.980;73.388;2023-04-15T04:32:14;5.72;;;1.90;;
50291;SDS011;36190;54.980;73.388;2023-04-15T04:34:41;8.63;;;2.00;;
50291;SDS011;36190;54.980;73.388;2023-04-15T04:37:10;13.73;;;3.30;;
50291;SDS011;36190;54.980;73.388;2023-04-15T04:39:38;6.22;;;2.20;;
50291;SDS011;36190;54.980;73.388;2023-04-15T04:42:05;9.35;;;2.75;;
50291;SDS011;36190;54.980;73.388;2023-04-15T04:44:33;5.35;;;1.90;;
50291;SDS011;36190;54.980;73.388;2023-04-15T04:47:00;7.50;;;1.80;;
50291;SDS011;36190;54.980;73.388;2023-04-15T04:49:27;9.25;;;2.67;;
50291;SDS011;36190;54.980;73.388;2023-04-15T04:51:55;10.35;;;2.22;;
50291;SDS011;36190;54.980;73.388;2023-04-15T04:54:25;8.20;;;1.73;;
50291;SDS011;36190;54.980;73.388;2023-04-15T04:56:52;9.35;;;2.00;;
50291;SDS011;36190;54.980;73.388;2023-04-15T04:59:19;7.13;;;1.98;;
50291;SDS011;36190;54.980;73.388;2023-04-15T05:01:47;7.13;;;2.00;;
50291;SDS011;36190;54.980;73.388;2023-04-15T05:04:14;9.05;;;2.53;;
50291;SDS011;36190;54.980;73.388;2023-04-15T05:06:42;5.95;;;1.60;;
50291;SDS011;36190;54.980;73.388;2023-04-15T05:09:10;8.10;;;2.80;;
50291;SDS011;36190;54.980;73.388;2023-04-15T05:11:39;4.47;;;1.88;;
50291;SDS011;36190;54.980;73.388;2023-04-15T05:14:06;8.63;;;2.70;;
50291;SDS011;36190;54.980;73.388;2023-04-15T05:16:33;10.57;;;2.70;;
50291;SDS011;36190;54.980;73.388;2023-04-15T05:19:01;8.48;;;2.63;;
50291;SDS011;36190;54.980;73.388;2023-04-15T05:21:28;10.60;;;3.88;;
50291;SDS011;36190;54.980;73.388;2023-04-15T05:23:56;7.28;;;2.00;;
50291;SDS011;36190;54.980;73.388;2023-04-15T05:26:23;11.18;;;3.28;;
50291;SDS011;36190;54.980;73.388;2023-04-15T05:28:53;9.88;;;2.70;;
50291;SDS011;36190;54.980;73.388;2023-04-15T05:31:20;7.15;;;2.85;;
50291;SDS011;36190;54.980;73.388;2023-04-15T05:33:48;7.25;;;2.03;;
50291;SDS011;36190;54.980;73.388;2023-04-15T05:36:16;14.00;;;2.30;;
50291;SDS011;36190;54.980;73.388;2023-04-15T05:38:43;8.70;;;3.75;;
50291;SDS011;36190;54.980;73.388;2023-04-15T05:41:11;6.55;;;2.28;;
50291;SDS011;36190;54.980;73.388;2023-04-15T05:43:40;5.63;;;2.10;;
50291;SDS011;36190;54.980;73.388;2023-04-15T05:46:09;4.97;;;2.13;;
50291;SDS011;36190;54.980;73.388;2023-04-15T05:48:36;8.20;;;2.92;;
50291;SDS011;36190;54.980;73.388;2023-04-15T05:51:03;15.20;;;2.55;;
50291;SDS011;36190;54.980;73.388;2023-04-15T05:53:31;7.10;;;2.35;;
50291;SDS011;36190;54.980;73.388;2023-04-15T05:55:59;4.47;;;2.47;;
50291;SDS011;36190;54.980;73.388;2023-04-15T05:58:26;7.90;;;2.60;;
50291;SDS011;36190;54.980;73.388;2023-04-15T06:00:54;7.85;;;2.38;;
50291;SDS011;36190;54.980;73.388;2023-04-15T06:03:23;13.07;;;3.55;;
50291;SDS011;36190;54.980;73.388;2023-04-15T06:05:51;8.80;;;2.30;;
50291;SDS011;36190;54.980;73.388;2023-04-15T06:08:18;22.10;;;3.25;;
50291;SDS011;36190;54.980;73.388;2023-04-15T06:10:46;17.45;;;3.25;;
50291;SDS011;36190;54.980;73.388;2023-04-15T06:13:13;6.35;;;2.22;;
50291;SDS011;36190;54.980;73.388;2023-04-15T06:15:41;9.65;;;1.90;;
50291;SDS011;36190;54.980;73.388;2023-04-15T06:18:08;3.85;;;1.85;;
50291;SDS011;36190;54.980;73.388;2023-04-15T06:20:37;5.00;;;1.83;;
50291;SDS011;36190;54.980;73.388;2023-04-15T06:23:06;4.97;;;1.95;;
50291;SDS011;36190;54.980;73.388;2023-04-15T06:25:33;4.90;;;1.88;;
50291;SDS011;36190;54.980;73.388;2023-04-15T06:28:01;3.60;;;1.85;;
50291;SDS011;36190;54.980;73.388;2023-04-15T06:30:28;12.70;;;3.03;;
50291;SDS011;36190;54.980;73.388;2023-04-15T06:32:56;17.00;;;2.83;;
50291;SDS011;36190;54.980;73.388;2023-04-15T06:35:24;9.80;;;2.30;;
50291;SDS011;36190;54.980;73.388;2023-04-15T06:37:53;11.13;;;2.20;;
50291;SDS011;36190;54.980;73.388;2023-04-15T06:40:20;9.75;;;2.05;;
50291;SDS011;36190;54.980;73.388;2023-04-15T06:42:48;6.88;;;2.42;;
50291;SDS011;36190;54.980;73.388;2023-04-15T06:45:16;3.42;;;1.83;;
50291;SDS011;36190;54.980;73.388;2023-04-15T06:47:43;5.68;;;2.08;;
50291;SDS011;36190;54.980;73.388;2023-04-15T06:50:11;3.85;;;1.75;;
50291;SDS011;36190;54.980;73.388;2023-04-15T06:52:38;9.60;;;3.63;;
50291;SDS011;36190;54.980;73.388;2023-04-15T06:55:08;12.75;;;2.33;;
50291;SDS011;36190;54.980;73.388;2023-04-15T06:57:35;5.90;;;2.40;;
50291;SDS011;36190;54.980;73.388;2023-04-15T07:00:03;5.28;;;1.77;;
50291;SDS011;36190;54.980;73.388;2023-04-15T07:02:32;10.77;;;2.30;;
50291;SDS011;36190;54.980;73.388;2023-04-15T07:04:59;6.20;;;1.85;;
50291;SDS011;36190;54.980;73.388;2023-04-15T07:07:27;8.20;;;1.83;;
50291;SDS011;36190;54.980;73.388;2023-04-15T07:09:54;7.72;;;2.40;;
50291;SDS011;36190;54.980;73.388;2023-04-15T07:12:23;16.10;;;2.72;;
50291;SDS011;36190;54.980;73.388;2023-04-15T07:14:51;5.25;;;1.83;;
50291;SDS011;36190;54.980;73.388;2023-04-15T07:17:20;6.78;;;2.17;;
50291;SDS011;36190;54.980;73.388;2023-04-15T07:19:47;16.50;;;3.55;;
50291;SDS011;36190;54.980;73.388;2023-04-15T07:22:15;6.93;;;1.95;;
50291;SDS011;36190;54.980;73.388;2023-04-15T07:24:42;8.68;;;2.72;;
50291;SDS011;36190;54.980;73.388;2023-04-15T07:27:10;5.00;;;2.15;;
50291;SDS011;36190;54.980;73.388;2023-04-15T07:29:39;3.75;;;1.48;;
50291;SDS011;36190;54.980;73.388;2023-04-15T07:32:06;6.50;;;1.85;;
50291;SDS011;36190;54.980;73.388;2023-04-15T07:34:35;7.88;;;2.20;;
50291;SDS011;36190;54.980;73.388;2023-04-15T07:37:03;7.03;;;1.85;;
50291;SDS011;36190;54.980;73.388;2023-04-15T07:39:30;3.22;;;1.85;;
50291;SDS011;36190;54.980;73.388;2023-04-15T07:41:58;4.70;;;1.83;;
50291;SDS011;36190;54.980;73.388;2023-04-15T07:44:26;5.38;;;1.90;;
50291;SDS011;36190;54.980;73.388;2023-04-15T07:46:55;10.48;;;2.30;;
50291;SDS011;36190;54.980;73.388;2023-04-15T07:49:23;5.72;;;2.13;;
50291;SDS011;36190;54.980;73.388;2023-04-15T07:51:50;6.32;;;1.98;;
50291;SDS011;36190;54.980;73.388;2023-04-15T07:54:18;4.32;;;1.85;;
50291;SDS011;36190;54.980;73.388;2023-04-15T07:56:46;4.72;;;2.20;;
50291;SDS011;36190;54.980;73.388;2023-04-15T07:59:14;7.60;;;2.20;;
50291;SDS011;36190;54.980;73.388;2023-04-15T08:01:42;16.23;;;2.78;;
50291;SDS011;36190;54.980;73.388;2023-04-15T08:04:11;8.88;;;2.42;;
50291;SDS011;36190;54.980;73.388;2023-04-15T08:06:39;4.30;;;1.88;;
50291;SDS011;36190;54.980;73.388;2023-04-15T08:09:06;5.80;;;2.22;;
50291;SDS011;36190;54.980;73.388;2023-04-15T08:11:34;5.22;;;1.75;;
50291;SDS011;36190;54.980;73.388;2023-04-15T08:14:02;2.50;;;1.50;;
50291;SDS011;36190;54.980;73.388;2023-04-15T08:16:29;4.43;;;1.85;;
50291;SDS011;36190;54.980;73.388;2023-04-15T08:18:56;4.30;;;1.83;;
50291;SDS011;36190;54.980;73.388;2023-04-15T08:21:25;5.45;;;2.25;;
50291;SDS011;36190;54.980;73.388;2023-04-15T08:23:55;4.07;;;1.65;;
50291;SDS011;36190;54.980;73.388;2023-04-15T08:26:23;5.93;;;1.83;;
50291;SDS011;36190;54.980;73.388;2023-04-15T08:28:50;9.02;;;1.98;;
50291;SDS011;36190;54.980;73.388;2023-04-15T08:31:18;2.33;;;1.75;;
50291;SDS011;36190;54.980;73.388;2023-04-15T08:33:46;8.65;;;2.08;;
50291;SDS011;36190;54.980;73.388;2023-04-15T08:36:13;9.80;;;2.30;;
50291;SDS011;36190;54.980;73.388;2023-04-15T08:38:43;6.70;;;2.10;;
50291;SDS011;36190;54.980;73.388;2023-04-15T08:41:11;3.03;;;1.70;;
50291;SDS011;36190;54.980;73.388;2023-04-15T08:43:48;8.30;;;2.05;;
50291;SDS011;36190;54.980;73.388;2023-04-15T08:46:19;5.00;;;1.90;;
50291;SDS011;36190;54.980;73.388;2023-04-15T08:48:47;4.50;;;1.80;;
50291;SDS011;36190;54.980;73.388;2023-04-15T08:51:15;3.20;;;1.80;;
50291;SDS011;36190;54.980;73.388;2023-04-15T08:53:45;10.90;;;2.63;;
50291;SDS011;36190;54.980;73.388;2023-04-15T08:56:13;7.97;;;2.60;;
50291;SDS011;36190;54.980;73.388;2023-04-15T08:58:42;6.60;;;2.03;;
50291;SDS011;36190;54.980;73.388;2023-04-15T09:01:10;8.75;;;2.85;;
50291;SDS011;36190;54.980;73.388;2023-04-15T09:03:38;13.68;;;3.20;;
50291;SDS011;36190;54.980;73.388;2023-04-15T09:06:07;6.07;;;2.30;;
50291;SDS011;36190;54.980;73.388;2023-04-15T09:08:35;10.15;;;2.20;;
50291;SDS011;36190;54.980;73.388;2023-04-15T09:11:04;5.45;;;1.95;;
50291;SDS011;36190;54.980;73.388;2023-04-15T09:13:31;8.70;;;2.17;;
50291;SDS011;36190;54.980;73.388;2023-04-15T09:16:00;4.47;;;2.10;;
50291;SDS011;36190;54.980;73.388;2023-04-15T09:18:28;7.60;;;1.90;;
50291;SDS011;36190;54.980;73.388;2023-04-15T09:21:03;5.28;;;2.10;;
50291;SDS011;36190;54.980;73.388;2023-04-15T09:23:33;7.93;;;2.60;;
50291;SDS011;36190;54.980;73.388;2023-04-15T09:26:01;6.68;;;2.00;;
50291;SDS011;36190;54.980;73.388;2023-04-15T09:28:30;6.40;;;2.22;;
50291;SDS011;36190;54.980;73.388;2023-04-15T09:31:00;8.98;;;2.60;;
50291;SDS011;36190;54.980;73.388;2023-04-15T09:33:28;5.43;;;2.08;;
50291;SDS011;36190;54.980;73.388;2023-04-15T09:35:56;7.07;;;2.95;;
50291;SDS011;36190;54.980;73.388;2023-04-15T09:38:25;7.47;;;2.88;;
50291;SDS011;36190;54.980;73.388;2023-04-15T09:40:52;11.48;;;2.58;;
50291;SDS011;36190;54.980;73.388;2023-04-15T09:43:20;11.80;;;2.72;;
50291;SDS011;36190;54.980;73.388;2023-04-15T09:45:50;8.45;;;2.85;;
50291;SDS011;36190;54.980;73.388;2023-04-15T09:48:19;4.25;;;2.22;;
50291;SDS011;36190;54.980;73.388;2023-04-15T09:50:48;6.63;;;2.65;;
50291;SDS011;36190;54.980;73.388;2023-04-15T09:53:18;6.43;;;2.40;;
50291;SDS011;36190;54.980;73.388;2023-04-15T09:55:48;7.28;;;2.60;;
50291;SDS011;36190;54.980;73.388;2023-04-15T09:58:18;8.60;;;2.90;;
50291;SDS011;36190;54.980;73.388;2023-04-15T10:00:46;4.38;;;1.98;;
50291;SDS011;36190;54.980;73.388;2023-04-15T10:03:17;5.72;;;2.28;;
50291;SDS011;36190;54.980;73.388;2023-04-15T10:05:47;6.63;;;2.08;;
50291;SDS011;36190;54.980;73.388;2023-04-15T10:08:16;5.05;;;2.13;;
50291;SDS011;36190;54.980;73.388;2023-04-15T10:10:46;6.75;;;2.40;;
50291;SDS011;36190;54.980;73.388;2023-04-15T10:13:16;6.72;;;2.85;;
50291;SDS011;36190;54.980;73.388;2023-04-15T10:15:48;7.65;;;2.30;;
50291;SDS011;36190;54.980;73.388;2023-04-15T10:18:19;5.35;;;2.55;;
50291;SDS011;36190;54.980;73.388;2023-04-15T10:20:50;4.38;;;2.08;;
50291;SDS011;36190;54.980;73.388;2023-04-15T10:23:19;5.85;;;2.05;;
50291;SDS011;36190;54.980;73.388;2023-04-15T10:25:46;7.80;;;2.70;;
50291;SDS011;36190;54.980;73.388;2023-04-15T10:28:15;7.35;;;2.40;;
50291;SDS011;36190;54.980;73.388;2023-04-15T10:30:42;8.23;;;2.90;;
50291;SDS011;36190;54.980;73.388;2023-04-15T10:33:10;9.32;;;3.47;;
50291;SDS011;36190;54.980;73.388;2023-04-15T10:35:40;6.63;;;2.50;;
50291;SDS011;36190;54.980;73.388;2023-04-15T10:41:11;5.28;;;2.25;;
50291;SDS011;36190;54.980;73.388;2023-04-15T10:43:44;3.83;;;1.70;;
50291;SDS011;36190;54.980;73.388;2023-04-15T10:46:16;17.77;;;3.22;;
50291;SDS011;36190;54.980;73.388;2023-04-15T10:48:48;8.27;;;2.75;;
50291;SDS011;36190;54.980;73.388;2023-04-15T10:51:26;8.20;;;2.75;;
50291;SDS011;36190;54.980;73.388;2023-04-15T10:53:56;8.63;;;3.13;;
50291;SDS011;36190;54.980;73.388;2023-04-15T10:56:25;6.43;;;2.55;;
50291;SDS011;36190;54.980;73.388;2023-04-15T10:58:55;7.00;;;2.20;;
50291;SDS011;36190;54.980;73.388;2023-04-15T11:07:36;4.18;;;1.98;;
50291;SDS011;36190;54.980;73.388;2023-04-15T11:13:26;6.40;;;2.30;;
50291;SDS011;36190;54.980;73.388;2023-04-15T11:15:57;8.73;;;2.17;;
50291;SDS011;36190;54.980;73.388;2023-04-15T11:18:26;10.15;;;3.17;;
50291;SDS011;36190;54.980;73.388;2023-04-15T11:20:59;6.00;;;2.40;;
50291;SDS011;36190;54.980;73.388;2023-04-15T11:23:30;7.82;;;2.50;;
50291;SDS011;36190;54.980;73.388;2023-04-15T11:25:59;8.98;;;2.60;;
50291;SDS011;36190;54.980;73.388;2023-04-15T11:28:30;7.47;;;2.75;;
50291;SDS011;36190;54.980;73.388;2023-04-15T11:31:04;5.82;;;2.53;;
50291;SDS011;36190;54.980;73.388;2023-04-15T11:33:32;7.78;;;2.17;;
50291;SDS011;36190;54.980;73.388;2023-04-15T11:36:00;5.60;;;2.40;;
50291;SDS011;36190;54.980;73.388;2023-04-15T11:38:30;7.47;;;2.50;;
50291;SDS011;36190;54.980;73.388;2023-04-15T11:40:57;11.82;;;3.50;;
50291;SDS011;36190;54.980;73.388;2023-04-15T11:43:25;8.60;;;3.10;;
50291;SDS011;36190;54.980;73.388;2023-04-15T11:45:53;5.82;;;2.80;;
50291;SDS011;36190;54.980;73.388;2023-04-15T11:48:21;6.88;;;2.75;;
50291;SDS011;36190;54.980;73.388;2023-04-15T11:50:54;6.38;;;2.65;;
50291;SDS011;36190;54.980;73.388;2023-04-15T11:53:22;6.68;;;2.78;;
50291;SDS011;36190;54.980;73.388;2023-04-15T11:55:52;7.85;;;3.00;;
50291;SDS011;36190;54.980;73.388;2023-04-15T11:58:20;10.80;;;4.05;;
50291;SDS011;36190;54.980;73.388;2023-04-15T12:00:50;8.75;;;3.65;;
50291;SDS011;36190;54.980;73.388;2023-04-15T12:03:21;12.45;;;4.10;;
50291;SDS011;36190;54.980;73.388;2023-04-15T12:06:06;10.82;;;4.03;;
50291;SDS011;36190;54.980;73.388;2023-04-15T12:11:32;8.73;;;3.75;;
50291;SDS011;36190;54.980;73.388;2023-04-15T12:14:03;12.60;;;4.97;;
50291;SDS011;36190;54.980;73.388;2023-04-15T12:16:33;11.73;;;5.60;;
50291;SDS011;36190;54.980;73.388;2023-04-15T12:19:03;20.67;;;4.90;;
50291;SDS011;36190;54.980;73.388;2023-04-15T12:21:33;12.13;;;4.55;;
50291;SDS011;36190;54.980;73.388;2023-04-15T12:24:02;14.50;;;4.38;;
50291;SDS011;36190;54.980;73.388;2023-04-15T12:26:34;11.00;;;5.07;;
50291;SDS011;36190;54.980;73.388;2023-04-15T12:29:04;12.88;;;6.20;;
50291;SDS011;36190;54.980;73.388;2023-04-15T12:31:33;15.90;;;6.75;;
50291;SDS011;36190;54.980;73.388;2023-04-15T12:34:02;20.75;;;7.63;;
50291;SDS011;36190;54.980;73.388;2023-04-15T12:36:33;14.90;;;7.25;;
50291;SDS011;36190;54.980;73.388;2023-04-15T12:39:02;14.10;;;6.60;;
50291;SDS011;36190;54.980;73.388;2023-04-15T12:41:30;18.25;;;6.63;;
50291;SDS011;36190;54.980;73.388;2023-04-15T12:43:59;21.33;;;8.30;;
50291;SDS011;36190;54.980;73.388;2023-04-15T12:46:27;25.45;;;7.28;;
50291;SDS011;36190;54.980;73.388;2023-04-15T12:48:54;17.30;;;7.65;;
50291;SDS011;36190;54.980;73.388;2023-04-15T12:51:22;17.70;;;7.95;;
50291;SDS011;36190;54.980;73.388;2023-04-15T12:53:51;17.25;;;7.40;;
50291;SDS011;36190;54.980;73.388;2023-04-15T12:56:19;14.52;;;6.38;;
50291;SDS011;36190;54.980;73.388;2023-04-15T12:58:46;16.83;;;6.40;;
50291;SDS011;36190;54.980;73.388;2023-04-15T13:01:15;17.75;;;7.00;;
50291;SDS011;36190;54.980;73.388;2023-04-15T13:03:43;12.70;;;6.05;;
50291;SDS011;36190;54.980;73.388;2023-04-15T13:06:11;14.07;;;6.13;;
50291;SDS011;36190;54.980;73.388;2023-04-15T13:08:38;17.25;;;8.75;;
50291;SDS011;36190;54.980;73.388;2023-04-15T13:11:06;13.73;;;5.35;;
50291;SDS011;36190;54.980;73.388;2023-04-15T13:13:33;12.90;;;5.68;;
50291;SDS011;36190;54.980;73.388;2023-04-15T13:16:01;12.30;;;5.75;;
50291;SDS011;36190;54.980;73.388;2023-04-15T13:18:30;16.27;;;7.50;;
50291;SDS011;36190;54.980;73.388;2023-04-15T13:20:59;14.07;;;7.10;;
50291;SDS011;36190;54.980;73.388;2023-04-15T13:23:27;21.33;;;9.57;;
50291;SDS011;36190;54.980;73.388;2023-04-15T13:25:54;13.45;;;6.53;;
50291;SDS011;36190;54.980;73.388;2023-04-15T13:28:22;14.77;;;6.88;;
50291;SDS011;36190;54.980;73.388;2023-04-15T13:30:49;19.77;;;7.88;;
50291;SDS011;36190;54.980;73.388;2023-04-15T13:33:17;16.40;;;7.57;;
50291;SDS011;36190;54.980;73.388;2023-04-15T13:35:46;13.52;;;6.03;;
50291;SDS011;36190;54.980;73.388;2023-04-15T13:38:13;14.45;;;4.90;;
50291;SDS011;36190;54.980;73.388;2023-04-15T13:40:41;11.23;;;4.80;;
50291;SDS011;36190;54.980;73.388;2023-04-15T13:43:08;11.55;;;4.20;;
50291;SDS011;36190;54.980;73.388;2023-04-15T13:45:36;10.30;;;4.63;;
50291;SDS011;36190;54.980;73.388;2023-04-15T13:48:03;10.18;;;4.25;;
50291;SDS011;36190;54.980;73.388;2023-04-15T13:50:31;22.05;;;6.18;;
50291;SDS011;36190;54.980;73.388;2023-04-15T13:53:00;13.75;;;5.22;;
50291;SDS011;36190;54.980;73.388;2023-04-15T13:55:27;15.30;;;5.65;;
50291;SDS011;36190;54.980;73.388;2023-04-15T13:57:55;22.05;;;4.53;;
50291;SDS011;36190;54.980;73.388;2023-04-15T14:00:23;12.75;;;4.38;;
50291;SDS011;36190;54.980;73.388;2023-04-15T14:02:50;14.95;;;5.95;;
50291;SDS011;36190;54.980;73.388;2023-04-15T14:05:17;12.00;;;4.88;;
50291;SDS011;36190;54.980;73.388;2023-04-15T14:07:45;11.10;;;4.25;;
50291;SDS011;36190;54.980;73.388;2023-04-15T14:10:15;16.38;;;4.40;;
50291;SDS011;36190;54.980;73.388;2023-04-15T14:12:42;13.80;;;4.93;;
50291;SDS011;36190;54.980;73.388;2023-04-15T14:15:10;11.88;;;4.15;;
50291;SDS011;36190;54.980;73.388;2023-04-15T14:17:37;19.15;;;5.57;;
50291;SDS011;36190;54.980;73.388;2023-04-15T14:20:07;17.55;;;5.85;;
50291;SDS011;36190;54.980;73.388;2023-04-15T14:22:35;15.15;;;6.00;;
50291;SDS011;36190;54.980;73.388;2023-04-15T14:25:02;16.10;;;5.20;;
50291;SDS011;36190;54.980;73.388;2023-04-15T14:27:32;16.63;;;5.70;;
50291;SDS011;36190;54.980;73.388;2023-04-15T14:29:59;13.13;;;5.20;;
50291;SDS011;36190;54.980;73.388;2023-04-15T14:32:27;13.80;;;5.13;;
50291;SDS011;36190;54.980;73.388;2023-04-15T14:34:54;15.02;;;5.53;;
50291;SDS011;36190;54.980;73.388;2023-04-15T14:37:22;26.40;;;6.68;;
50291;SDS011;36190;54.980;73.388;2023-04-15T14:39:49;22.77;;;5.45;;
50291;SDS011;36190;54.980;73.388;2023-04-15T14:42:17;15.80;;;5.22;;
50291;SDS011;36190;54.980;73.388;2023-04-15T14:44:46;19.63;;;6.07;;
50291;SDS011;36190;54.980;73.388;2023-04-15T14:47:13;15.75;;;5.70;;
50291;SDS011;36190;54.980;73.388;2023-04-15T14:49:40;15.00;;;5.45;;
50291;SDS011;36190;54.980;73.388;2023-04-15T14:52:08;15.95;;;5.57;;
50291;SDS011;36190;54.980;73.388;2023-04-15T14:54:35;15.82;;;4.65;;